sensor_id;sensor_type;location;lat;lon;timestamp;temperature;humidity
43697;DHT22;29301;47.620;19.560;2022-09-13T00:01:46;13.40;81.40
43697;DHT22;29301;47.620;19.560;2022-09-13T00:04:12;13.30;81.50
43697;DHT22;29301;47.620;19.560;2022-09-13T00:06:38;13.40;81.90
43697;DHT22;29301;47.620;19.560;2022-09-13T00:09:03;13.20;82.00
43697;DHT22;29301;47.620;19.560;2022-09-13T00:11:30;13.20;82.20
43697;DHT22;29301;47.620;19.560;2022-09-13T00:13:57;13.20;82.70
43697;DHT22;29301;47.620;19.560;2022-09-13T00:16:25;13.00;82.40
43697;DHT22;29301;47.620;19.560;2022-09-13T00:18:52;12.80;83.30
43697;DHT22;29301;47.620;19.560;2022-09-13T00:21:19;12.90;83.80
43697;DHT22;29301;47.620;19.560;2022-09-13T00:23:47;13.00;83.90
43697;DHT22;29301;47.620;19.560;2022-09-13T00:26:25;12.80;83.90
43697;DHT22;29301;47.620;19.560;2022-09-13T00:28:56;12.80;84.80
43697;DHT22;29301;47.620;19.560;2022-09-13T00:31:23;12.80;85.00
43697;DHT22;29301;47.620;19.560;2022-09-13T00:33:49;12.70;85.60
43697;DHT22;29301;47.620;19.560;2022-09-13T00:36:15;12.60;86.50
43697;DHT22;29301;47.620;19.560;2022-09-13T00:38:42;12.60;87.20
43697;DHT22;29301;47.620;19.560;2022-09-13T00:41:12;12.60;87.60
43697;DHT22;29301;47.620;19.560;2022-09-13T00:43:50;12.50;87.80
43697;DHT22;29301;47.620;19.560;2022-09-13T00:49:29;12.60;87.90
43697;DHT22;29301;47.620;19.560;2022-09-13T00:52:02;12.50;88.10
43697;DHT22;29301;47.620;19.560;2022-09-13T00:54:34;12.50;88.20
43697;DHT22;29301;47.620;19.560;2022-09-13T00:57:02;12.60;87.90
43697;DHT22;29301;47.620;19.560;2022-09-13T00:59:35;12.70;87.70
43697;DHT22;29301;47.620;19.560;2022-09-13T01:02:02;12.70;87.50
43697;DHT22;29301;47.620;19.560;2022-09-13T01:04:30;12.70;87.00
43697;DHT22;29301;47.620;19.560;2022-09-13T01:07:01;12.80;86.70
43697;DHT22;29301;47.620;19.560;2022-09-13T01:09:28;12.80;86.30
43697;DHT22;29301;47.620;19.560;2022-09-13T01:12:05;12.70;86.20
43697;DHT22;29301;47.620;19.560;2022-09-13T01:14:33;12.60;86.40
43697;DHT22;29301;47.620;19.560;2022-09-13T01:16:59;12.60;86.50
43697;DHT22;29301;47.620;19.560;2022-09-13T01:19:26;12.50;87.30
43697;DHT22;29301;47.620;19.560;2022-09-13T01:22:28;12.40;88.00
43697;DHT22;29301;47.620;19.560;2022-09-13T01:33:37;12.30;90.00
43697;DHT22;29301;47.620;19.560;2022-09-13T01:39:01;12.20;90.50
43697;DHT22;29301;47.620;19.560;2022-09-13T01:44:00;12.20;90.70
43697;DHT22;29301;47.620;19.560;2022-09-13T01:52:13;12.20;90.80
43697;DHT22;29301;47.620;19.560;2022-09-13T01:57:18;12.20;90.00
43697;DHT22;29301;47.620;19.560;2022-09-13T02:00:13;12.20;89.60
43697;DHT22;29301;47.620;19.560;2022-09-13T02:03:02;12.20;88.60
43697;DHT22;29301;47.620;19.560;2022-09-13T02:11:09;12.10;89.00
43697;DHT22;29301;47.620;19.560;2022-09-13T02:13:42;12.00;88.40
43697;DHT22;29301;47.620;19.560;2022-09-13T02:16:19;11.90;88.50
43697;DHT22;29301;47.620;19.560;2022-09-13T02:18:49;11.90;88.80
43697;DHT22;29301;47.620;19.560;2022-09-13T02:21:24;11.80;89.00
43697;DHT22;29301;47.620;19.560;2022-09-13T02:23:59;11.70;90.00
43697;DHT22;29301;47.620;19.560;2022-09-13T02:26:28;11.70;90.20
43697;DHT22;29301;47.620;19.560;2022-09-13T02:28:57;11.80;90.10
43697;DHT22;29301;47.620;19.560;2022-09-13T02:31:32;11.90;89.90
43697;DHT22;29301;47.620;19.560;2022-09-13T02:34:22;11.90;89.20
43697;DHT22;29301;47.620;19.560;2022-09-13T02:36:51;11.90;89.10
43697;DHT22;29301;47.620;19.560;2022-09-13T02:39:22;11.70;90.10
43697;DHT22;29301;47.620;19.560;2022-09-13T02:42:09;11.80;90.30
43697;DHT22;29301;47.620;19.560;2022-09-13T02:44:40;11.80;90.20
43697;DHT22;29301;47.620;19.560;2022-09-13T02:52:42;11.50;90.30
43697;DHT22;29301;47.620;19.560;2022-09-13T02:55:20;11.50;90.60
43697;DHT22;29301;47.620;19.560;2022-09-13T03:00:26;11.60;90.80
43697;DHT22;29301;47.620;19.560;2022-09-13T03:02:54;11.50;91.00
43697;DHT22;29301;47.620;19.560;2022-09-13T03:05:21;11.50;91.10
43697;DHT22;29301;47.620;19.560;2022-09-13T03:07:48;11.60;91.20
43697;DHT22;29301;47.620;19.560;2022-09-13T03:10:14;11.60;91.20
43697;DHT22;29301;47.620;19.560;2022-09-13T03:31:11;11.50;90.20
43697;DHT22;29301;47.620;19.560;2022-09-13T03:33:50;11.40;90.50
43697;DHT22;29301;47.620;19.560;2022-09-13T03:36:23;11.30;91.10
43697;DHT22;29301;47.620;19.560;2022-09-13T03:41:42;11.20;91.10
43697;DHT22;29301;47.620;19.560;2022-09-13T03:44:12;11.30;91.00
43697;DHT22;29301;47.620;19.560;2022-09-13T03:46:41;11.20;91.10
43697;DHT22;29301;47.620;19.560;2022-09-13T03:49:13;11.10;91.40
43697;DHT22;29301;47.620;19.560;2022-09-13T03:51:40;11.20;91.30
43697;DHT22;29301;47.620;19.560;2022-09-13T03:54:11;11.20;90.90
43697;DHT22;29301;47.620;19.560;2022-09-13T03:56:39;11.10;90.90
43697;DHT22;29301;47.620;19.560;2022-09-13T03:59:05;11.00;91.20
43697;DHT22;29301;47.620;19.560;2022-09-13T04:01:31;10.80;91.60
43697;DHT22;29301;47.620;19.560;2022-09-13T04:03:56;10.90;91.70
43697;DHT22;29301;47.620;19.560;2022-09-13T04:06:22;11.00;91.50
43697;DHT22;29301;47.620;19.560;2022-09-13T04:08:48;11.00;91.50
43697;DHT22;29301;47.620;19.560;2022-09-13T04:11:13;11.00;91.50
43697;DHT22;29301;47.620;19.560;2022-09-13T04:13:39;11.00;91.40
43697;DHT22;29301;47.620;19.560;2022-09-13T04:16:06;11.10;91.10
43697;DHT22;29301;47.620;19.560;2022-09-13T04:18:32;11.00;91.00
43697;DHT22;29301;47.620;19.560;2022-09-13T04:21:00;10.90;91.40
43697;DHT22;29301;47.620;19.560;2022-09-13T04:23:27;10.90;91.30
43697;DHT22;29301;47.620;19.560;2022-09-13T04:25:53;10.90;91.30
43697;DHT22;29301;47.620;19.560;2022-09-13T04:28:20;10.90;91.30
43697;DHT22;29301;47.620;19.560;2022-09-13T04:30:48;10.90;91.50
43697;DHT22;29301;47.620;19.560;2022-09-13T04:33:15;10.70;91.80
43697;DHT22;29301;47.620;19.560;2022-09-13T04:35:41;10.70;92.30
43697;DHT22;29301;47.620;19.560;2022-09-13T04:38:07;10.70;92.70
43697;DHT22;29301;47.620;19.560;2022-09-13T04:40:33;10.60;92.90
43697;DHT22;29301;47.620;19.560;2022-09-13T04:43:02;10.60;93.10
43697;DHT22;29301;47.620;19.560;2022-09-13T04:45:28;10.60;93.10
43697;DHT22;29301;47.620;19.560;2022-09-13T04:47:55;10.70;93.20
43697;DHT22;29301;47.620;19.560;2022-09-13T04:50:24;10.70;93.20
43697;DHT22;29301;47.620;19.560;2022-09-13T04:52:52;10.70;93.40
43697;DHT22;29301;47.620;19.560;2022-09-13T04:55:18;10.70;93.60
43697;DHT22;29301;47.620;19.560;2022-09-13T04:57:44;10.70;93.80
43697;DHT22;29301;47.620;19.560;2022-09-13T05:00:10;10.80;93.90
43697;DHT22;29301;47.620;19.560;2022-09-13T05:02:35;10.80;94.00
43697;DHT22;29301;47.620;19.560;2022-09-13T05:05:01;10.80;94.20
43697;DHT22;29301;47.620;19.560;2022-09-13T05:07:27;10.80;94.20
43697;DHT22;29301;47.620;19.560;2022-09-13T05:09:52;10.80;94.30
43697;DHT22;29301;47.620;19.560;2022-09-13T05:12:18;10.80;94.70
43697;DHT22;29301;47.620;19.560;2022-09-13T05:14:44;10.80;94.90
43697;DHT22;29301;47.620;19.560;2022-09-13T05:17:09;10.80;94.90
43697;DHT22;29301;47.620;19.560;2022-09-13T05:19:35;10.90;95.00
43697;DHT22;29301;47.620;19.560;2022-09-13T05:22:01;11.00;95.10
43697;DHT22;29301;47.620;19.560;2022-09-13T05:24:27;11.00;95.30
43697;DHT22;29301;47.620;19.560;2022-09-13T05:26:53;11.00;95.50
43697;DHT22;29301;47.620;19.560;2022-09-13T05:29:19;11.00;95.70
43697;DHT22;29301;47.620;19.560;2022-09-13T05:31:44;11.00;95.70
43697;DHT22;29301;47.620;19.560;2022-09-13T05:34:12;11.10;95.80
43697;DHT22;29301;47.620;19.560;2022-09-13T05:36:39;11.20;95.90
43697;DHT22;29301;47.620;19.560;2022-09-13T05:39:06;11.30;95.90
43697;DHT22;29301;47.620;19.560;2022-09-13T05:41:32;11.30;95.70
43697;DHT22;29301;47.620;19.560;2022-09-13T05:43:58;11.40;95.60
43697;DHT22;29301;47.620;19.560;2022-09-13T05:46:23;11.50;95.50
43697;DHT22;29301;47.620;19.560;2022-09-13T05:48:49;11.50;95.40
43697;DHT22;29301;47.620;19.560;2022-09-13T05:51:20;11.60;95.30
43697;DHT22;29301;47.620;19.560;2022-09-13T05:53:47;11.70;95.30
43697;DHT22;29301;47.620;19.560;2022-09-13T05:56:16;11.80;95.10
43697;DHT22;29301;47.620;19.560;2022-09-13T05:58:43;11.90;95.10
43697;DHT22;29301;47.620;19.560;2022-09-13T06:01:10;12.00;94.80
43697;DHT22;29301;47.620;19.560;2022-09-13T06:03:36;12.20;94.90
43697;DHT22;29301;47.620;19.560;2022-09-13T06:06:02;12.30;94.80
43697;DHT22;29301;47.620;19.560;2022-09-13T06:08:29;12.50;97.00
43697;DHT22;29301;47.620;19.560;2022-09-13T06:11:01;12.60;97.10
43697;DHT22;29301;47.620;19.560;2022-09-13T06:13:27;12.80;95.80
43697;DHT22;29301;47.620;19.560;2022-09-13T06:15:55;12.90;94.20
43697;DHT22;29301;47.620;19.560;2022-09-13T06:18:21;13.00;93.20
43697;DHT22;29301;47.620;19.560;2022-09-13T06:20:47;13.10;92.80
43697;DHT22;29301;47.620;19.560;2022-09-13T06:23:14;13.30;92.80
43697;DHT22;29301;47.620;19.560;2022-09-13T06:25:40;13.30;92.40
43697;DHT22;29301;47.620;19.560;2022-09-13T06:28:06;13.40;91.80
43697;DHT22;29301;47.620;19.560;2022-09-13T06:30:32;13.40;92.20
43697;DHT22;29301;47.620;19.560;2022-09-13T06:32:58;13.60;92.30
43697;DHT22;29301;47.620;19.560;2022-09-13T06:35:24;13.70;92.40
43697;DHT22;29301;47.620;19.560;2022-09-13T06:37:50;13.90;91.90
43697;DHT22;29301;47.620;19.560;2022-09-13T06:40:19;14.00;91.30
43697;DHT22;29301;47.620;19.560;2022-09-13T06:42:47;14.00;90.90
43697;DHT22;29301;47.620;19.560;2022-09-13T06:45:12;14.20;90.70
43697;DHT22;29301;47.620;19.560;2022-09-13T06:47:38;14.30;90.20
43697;DHT22;29301;47.620;19.560;2022-09-13T06:50:05;14.40;90.00
43697;DHT22;29301;47.620;19.560;2022-09-13T06:52:32;14.50;90.00
43697;DHT22;29301;47.620;19.560;2022-09-13T06:54:57;14.70;89.10
43697;DHT22;29301;47.620;19.560;2022-09-13T06:57:23;14.80;88.60
43697;DHT22;29301;47.620;19.560;2022-09-13T06:59:49;15.00;88.20
43697;DHT22;29301;47.620;19.560;2022-09-13T07:02:15;15.20;86.70
43697;DHT22;29301;47.620;19.560;2022-09-13T07:04:40;15.40;85.20
43697;DHT22;29301;47.620;19.560;2022-09-13T07:07:06;15.60;83.90
43697;DHT22;29301;47.620;19.560;2022-09-13T07:09:32;15.80;83.30
43697;DHT22;29301;47.620;19.560;2022-09-13T07:11:59;16.00;83.10
43697;DHT22;29301;47.620;19.560;2022-09-13T07:14:26;16.10;82.70
43697;DHT22;29301;47.620;19.560;2022-09-13T07:16:52;16.40;82.90
43697;DHT22;29301;47.620;19.560;2022-09-13T07:19:20;16.50;80.00
43697;DHT22;29301;47.620;19.560;2022-09-13T07:21:51;16.60;80.90
43697;DHT22;29301;47.620;19.560;2022-09-13T07:24:18;16.80;79.70
43697;DHT22;29301;47.620;19.560;2022-09-13T07:26:45;17.00;79.00
43697;DHT22;29301;47.620;19.560;2022-09-13T07:29:14;17.10;76.90
43697;DHT22;29301;47.620;19.560;2022-09-13T07:31:42;17.10;75.80
43697;DHT22;29301;47.620;19.560;2022-09-13T07:34:20;17.40;75.60
43697;DHT22;29301;47.620;19.560;2022-09-13T07:36:46;17.50;73.50
43697;DHT22;29301;47.620;19.560;2022-09-13T07:39:13;17.60;74.40
43697;DHT22;29301;47.620;19.560;2022-09-13T07:41:39;17.70;72.80
43697;DHT22;29301;47.620;19.560;2022-09-13T07:44:05;17.80;72.00
43697;DHT22;29301;47.620;19.560;2022-09-13T07:46:34;18.00;71.60
43697;DHT22;29301;47.620;19.560;2022-09-13T07:49:06;18.20;68.00
43697;DHT22;29301;47.620;19.560;2022-09-13T07:51:36;18.40;66.30
43697;DHT22;29301;47.620;19.560;2022-09-13T07:54:06;18.50;64.60
43697;DHT22;29301;47.620;19.560;2022-09-13T07:56:34;18.70;64.30
43697;DHT22;29301;47.620;19.560;2022-09-13T07:59:02;18.90;62.60
43697;DHT22;29301;47.620;19.560;2022-09-13T08:01:37;19.20;62.50
43697;DHT22;29301;47.620;19.560;2022-09-13T08:04:06;19.50;61.70
43697;DHT22;29301;47.620;19.560;2022-09-13T08:06:34;19.30;60.10
43697;DHT22;29301;47.620;19.560;2022-09-13T08:09:00;19.20;60.40
43697;DHT22;29301;47.620;19.560;2022-09-13T08:13:54;19.50;60.70
43697;DHT22;29301;47.620;19.560;2022-09-13T08:16:22;19.80;60.00
43697;DHT22;29301;47.620;19.560;2022-09-13T08:18:50;19.70;58.90
43697;DHT22;29301;47.620;19.560;2022-09-13T08:21:16;19.60;59.00
43697;DHT22;29301;47.620;19.560;2022-09-13T08:23:42;19.80;59.30
43697;DHT22;29301;47.620;19.560;2022-09-13T08:26:08;20.00;59.30
43697;DHT22;29301;47.620;19.560;2022-09-13T08:28:36;20.20;58.50
43697;DHT22;29301;47.620;19.560;2022-09-13T08:31:07;19.80;58.00
43697;DHT22;29301;47.620;19.560;2022-09-13T08:33:33;19.80;58.20
43697;DHT22;29301;47.620;19.560;2022-09-13T08:35:59;19.90;58.20
43697;DHT22;29301;47.620;19.560;2022-09-13T08:38:25;20.20;58.30
43697;DHT22;29301;47.620;19.560;2022-09-13T08:41:00;20.00;57.00
43697;DHT22;29301;47.620;19.560;2022-09-13T08:46:21;20.00;57.30
43697;DHT22;29301;47.620;19.560;2022-09-13T08:48:48;20.30;57.60
43697;DHT22;29301;47.620;19.560;2022-09-13T08:53:54;20.70;56.80
43697;DHT22;29301;47.620;19.560;2022-09-13T08:56:37;20.90;55.60
43697;DHT22;29301;47.620;19.560;2022-09-13T09:04:46;21.20;55.10
43697;DHT22;29301;47.620;19.560;2022-09-13T09:07:18;21.00;54.60
43697;DHT22;29301;47.620;19.560;2022-09-13T09:10:10;20.80;54.40
43697;DHT22;29301;47.620;19.560;2022-09-13T09:12:42;21.00;54.30
43697;DHT22;29301;47.620;19.560;2022-09-13T09:15:19;21.00;54.80
43697;DHT22;29301;47.620;19.560;2022-09-13T09:20:49;21.70;54.30
43697;DHT22;29301;47.620;19.560;2022-09-13T09:23:31;22.10;54.40
43697;DHT22;29301;47.620;19.560;2022-09-13T09:28:49;22.70;52.20
43697;DHT22;29301;47.620;19.560;2022-09-13T09:31:21;22.60;52.70
43697;DHT22;29301;47.620;19.560;2022-09-13T09:37:07;23.10;51.10
43697;DHT22;29301;47.620;19.560;2022-09-13T09:39:37;22.50;50.50
43697;DHT22;29301;47.620;19.560;2022-09-13T09:42:11;22.00;51.60
43697;DHT22;29301;47.620;19.560;2022-09-13T09:44:39;22.10;52.10
43697;DHT22;29301;47.620;19.560;2022-09-13T09:47:17;22.20;51.80
43697;DHT22;29301;47.620;19.560;2022-09-13T09:58:06;23.50;50.70
43697;DHT22;29301;47.620;19.560;2022-09-13T10:00:49;23.10;50.50
43697;DHT22;29301;47.620;19.560;2022-09-13T10:03:26;23.00;50.80
43697;DHT22;29301;47.620;19.560;2022-09-13T10:06:11;23.30;50.70
43697;DHT22;29301;47.620;19.560;2022-09-13T10:08:40;23.00;49.90
43697;DHT22;29301;47.620;19.560;2022-09-13T10:11:07;23.10;50.30
43697;DHT22;29301;47.620;19.560;2022-09-13T10:13:33;23.50;49.90
43697;DHT22;29301;47.620;19.560;2022-09-13T10:16:02;23.60;49.20
43697;DHT22;29301;47.620;19.560;2022-09-13T10:18:33;23.80;49.40
43697;DHT22;29301;47.620;19.560;2022-09-13T10:21:04;24.00;49.40
43697;DHT22;29301;47.620;19.560;2022-09-13T10:23:35;23.60;48.60
43697;DHT22;29301;47.620;19.560;2022-09-13T10:26:13;23.50;48.50
43697;DHT22;29301;47.620;19.560;2022-09-13T10:31:14;23.90;49.10
43697;DHT22;29301;47.620;19.560;2022-09-13T10:33:51;24.20;48.50
43697;DHT22;29301;47.620;19.560;2022-09-13T10:36:24;23.90;48.40
43697;DHT22;29301;47.620;19.560;2022-09-13T10:38:57;23.40;48.10
43697;DHT22;29301;47.620;19.560;2022-09-13T10:41:24;23.30;48.70
43697;DHT22;29301;47.620;19.560;2022-09-13T10:44:02;23.60;48.90
43697;DHT22;29301;47.620;19.560;2022-09-13T10:46:31;24.00;47.90
43697;DHT22;29301;47.620;19.560;2022-09-13T10:48:59;24.20;47.10
43697;DHT22;29301;47.620;19.560;2022-09-13T10:54:19;24.40;46.60
43697;DHT22;29301;47.620;19.560;2022-09-13T10:56:47;24.40;46.70
43697;DHT22;29301;47.620;19.560;2022-09-13T11:05:11;24.80;45.80
43697;DHT22;29301;47.620;19.560;2022-09-13T11:18:10;24.60;46.00
43697;DHT22;29301;47.620;19.560;2022-09-13T11:26:14;24.70;46.10
43697;DHT22;29301;47.620;19.560;2022-09-13T11:42:46;24.00;46.00
43697;DHT22;29301;47.620;19.560;2022-09-13T11:45:23;24.20;46.10
43697;DHT22;29301;47.620;19.560;2022-09-13T11:51:06;24.30;45.90
43697;DHT22;29301;47.620;19.560;2022-09-13T11:56:29;24.20;46.50
43697;DHT22;29301;47.620;19.560;2022-09-13T12:01:39;24.30;46.50
43697;DHT22;29301;47.620;19.560;2022-09-13T12:04:11;24.30;46.40
43697;DHT22;29301;47.620;19.560;2022-09-13T12:06:44;24.20;46.70
43697;DHT22;29301;47.620;19.560;2022-09-13T12:09:15;24.40;46.70
43697;DHT22;29301;47.620;19.560;2022-09-13T12:12:12;24.30;46.30
43697;DHT22;29301;47.620;19.560;2022-09-13T12:17:34;24.50;46.40
43697;DHT22;29301;47.620;19.560;2022-09-13T12:20:03;24.50;46.40
43697;DHT22;29301;47.620;19.560;2022-09-13T12:22:33;24.60;46.60
43697;DHT22;29301;47.620;19.560;2022-09-13T12:25:04;24.70;46.30
43697;DHT22;29301;47.620;19.560;2022-09-13T12:30:19;24.60;46.10
43697;DHT22;29301;47.620;19.560;2022-09-13T12:32:46;24.60;46.20
43697;DHT22;29301;47.620;19.560;2022-09-13T12:35:28;24.60;46.10
43697;DHT22;29301;47.620;19.560;2022-09-13T12:38:13;24.60;46.00
43697;DHT22;29301;47.620;19.560;2022-09-13T12:54:16;24.30;46.90
43697;DHT22;29301;47.620;19.560;2022-09-13T12:57:01;24.50;46.90
43697;DHT22;29301;47.620;19.560;2022-09-13T13:04:52;24.50;46.80
43697;DHT22;29301;47.620;19.560;2022-09-13T13:07:22;24.60;47.00
43697;DHT22;29301;47.620;19.560;2022-09-13T13:09:50;24.60;46.80
43697;DHT22;29301;47.620;19.560;2022-09-13T13:12:37;24.60;46.60
43697;DHT22;29301;47.620;19.560;2022-09-13T13:17:55;24.30;46.70
43697;DHT22;29301;47.620;19.560;2022-09-13T13:20:43;24.20;47.00
43697;DHT22;29301;47.620;19.560;2022-09-13T13:23:30;24.10;47.10
43697;DHT22;29301;47.620;19.560;2022-09-13T13:36:45;24.20;47.80
43697;DHT22;29301;47.620;19.560;2022-09-13T13:41:59;24.20;47.90
43697;DHT22;29301;47.620;19.560;2022-09-13T13:46:53;24.20;47.80
43697;DHT22;29301;47.620;19.560;2022-09-13T13:58:03;24.00;48.20
43697;DHT22;29301;47.620;19.560;2022-09-13T14:00:35;24.10;48.50
43697;DHT22;29301;47.620;19.560;2022-09-13T14:06:12;24.10;48.60
43697;DHT22;29301;47.620;19.560;2022-09-13T14:19:48;23.40;49.70
43697;DHT22;29301;47.620;19.560;2022-09-13T14:22:19;23.40;49.50
43697;DHT22;29301;47.620;19.560;2022-09-13T14:24:49;23.40;49.60
43697;DHT22;29301;47.620;19.560;2022-09-13T14:27:28;23.50;49.80
43697;DHT22;29301;47.620;19.560;2022-09-13T14:29:58;23.60;49.40
43697;DHT22;29301;47.620;19.560;2022-09-13T14:32:27;23.70;49.20
43697;DHT22;29301;47.620;19.560;2022-09-13T14:35:04;23.60;49.00
43697;DHT22;29301;47.620;19.560;2022-09-13T14:37:33;23.50;49.50
43697;DHT22;29301;47.620;19.560;2022-09-13T14:42:42;23.60;49.40
43697;DHT22;29301;47.620;19.560;2022-09-13T14:45:35;23.70;49.00
43697;DHT22;29301;47.620;19.560;2022-09-13T14:48:11;23.60;49.10
43697;DHT22;29301;47.620;19.560;2022-09-13T14:50:55;23.50;49.20
43697;DHT22;29301;47.620;19.560;2022-09-13T14:53:25;23.20;49.90
43697;DHT22;29301;47.620;19.560;2022-09-13T14:55:58;23.00;50.50
43697;DHT22;29301;47.620;19.560;2022-09-13T14:58:37;22.80;50.70
43697;DHT22;29301;47.620;19.560;2022-09-13T15:01:10;22.80;51.00
43697;DHT22;29301;47.620;19.560;2022-09-13T15:03:40;22.80;51.10
43697;DHT22;29301;47.620;19.560;2022-09-13T15:06:06;22.80;51.30
43697;DHT22;29301;47.620;19.560;2022-09-13T15:11:02;22.80;51.20
43697;DHT22;29301;47.620;19.560;2022-09-13T15:13:30;22.90;51.10
43697;DHT22;29301;47.620;19.560;2022-09-13T15:15:55;22.90;50.90
43697;DHT22;29301;47.620;19.560;2022-09-13T15:18:29;23.10;50.90
43697;DHT22;29301;47.620;19.560;2022-09-13T15:21:05;23.10;51.10
43697;DHT22;29301;47.620;19.560;2022-09-13T15:23:48;23.10;50.90
43697;DHT22;29301;47.620;19.560;2022-09-13T15:26:24;23.10;51.00
43697;DHT22;29301;47.620;19.560;2022-09-13T15:28:59;23.20;51.00
43697;DHT22;29301;47.620;19.560;2022-09-13T15:31:29;23.20;50.70
43697;DHT22;29301;47.620;19.560;2022-09-13T15:36:44;23.20;50.70
43697;DHT22;29301;47.620;19.560;2022-09-13T15:39:18;23.30;50.70
43697;DHT22;29301;47.620;19.560;2022-09-13T15:41:58;23.20;50.80
43697;DHT22;29301;47.620;19.560;2022-09-13T15:44:26;23.20;50.90
43697;DHT22;29301;47.620;19.560;2022-09-13T15:46:53;23.20;51.10
43697;DHT22;29301;47.620;19.560;2022-09-13T15:49:21;23.00;51.10
43697;DHT22;29301;47.620;19.560;2022-09-13T15:51:54;23.00;51.40
43697;DHT22;29301;47.620;19.560;2022-09-13T15:54:21;22.90;51.50
43697;DHT22;29301;47.620;19.560;2022-09-13T15:56:49;22.90;51.70
43697;DHT22;29301;47.620;19.560;2022-09-13T15:59:20;22.70;52.00
43697;DHT22;29301;47.620;19.560;2022-09-13T16:01:48;22.60;52.20
43697;DHT22;29301;47.620;19.560;2022-09-13T16:04:14;22.60;52.30
43697;DHT22;29301;47.620;19.560;2022-09-13T16:06:40;22.60;52.40
43697;DHT22;29301;47.620;19.560;2022-09-13T16:09:23;22.60;52.30
43697;DHT22;29301;47.620;19.560;2022-09-13T16:11:50;22.40;52.50
43697;DHT22;29301;47.620;19.560;2022-09-13T16:14:17;22.50;52.80
43697;DHT22;29301;47.620;19.560;2022-09-13T16:16:44;22.50;52.90
43697;DHT22;29301;47.620;19.560;2022-09-13T16:19:17;22.50;53.10
43697;DHT22;29301;47.620;19.560;2022-09-13T16:21:44;22.50;53.10
43697;DHT22;29301;47.620;19.560;2022-09-13T16:24:09;22.40;53.30
43697;DHT22;29301;47.620;19.560;2022-09-13T16:26:36;22.40;53.40
43697;DHT22;29301;47.620;19.560;2022-09-13T16:29:02;22.40;53.70
43697;DHT22;29301;47.620;19.560;2022-09-13T16:31:28;22.30;53.90
43697;DHT22;29301;47.620;19.560;2022-09-13T16:33:57;22.20;54.20
43697;DHT22;29301;47.620;19.560;2022-09-13T16:36:22;22.10;54.60
43697;DHT22;29301;47.620;19.560;2022-09-13T16:38:48;22.00;55.00
43697;DHT22;29301;47.620;19.560;2022-09-13T16:41:14;21.90;55.30
43697;DHT22;29301;47.620;19.560;2022-09-13T16:43:40;21.70;55.80
43697;DHT22;29301;47.620;19.560;2022-09-13T16:46:10;21.50;56.10
43697;DHT22;29301;47.620;19.560;2022-09-13T16:48:36;21.40;56.70
43697;DHT22;29301;47.620;19.560;2022-09-13T16:51:07;21.20;57.80
43697;DHT22;29301;47.620;19.560;2022-09-13T16:53:34;20.80;58.90
43697;DHT22;29301;47.620;19.560;2022-09-13T16:56:08;20.60;60.00
43697;DHT22;29301;47.620;19.560;2022-09-13T16:58:39;20.30;60.90
43697;DHT22;29301;47.620;19.560;2022-09-13T17:01:06;20.20;62.00
43697;DHT22;29301;47.620;19.560;2022-09-13T17:03:34;19.90;62.70
43697;DHT22;29301;47.620;19.560;2022-09-13T17:06:02;19.90;62.70
43697;DHT22;29301;47.620;19.560;2022-09-13T17:08:29;19.90;62.50
43697;DHT22;29301;47.620;19.560;2022-09-13T17:10:55;19.80;62.50
43697;DHT22;29301;47.620;19.560;2022-09-13T17:13:21;19.80;63.00
43697;DHT22;29301;47.620;19.560;2022-09-13T17:15:47;19.70;63.30
43697;DHT22;29301;47.620;19.560;2022-09-13T17:18:13;19.70;63.10
43697;DHT22;29301;47.620;19.560;2022-09-13T17:20:43;19.70;62.90
43697;DHT22;29301;47.620;19.560;2022-09-13T17:23:09;19.70;62.90
43697;DHT22;29301;47.620;19.560;2022-09-13T17:25:34;19.70;63.20
43697;DHT22;29301;47.620;19.560;2022-09-13T17:28:00;19.60;62.90
43697;DHT22;29301;47.620;19.560;2022-09-13T17:30:26;19.50;63.20
43697;DHT22;29301;47.620;19.560;2022-09-13T17:32:51;19.40;63.40
43697;DHT22;29301;47.620;19.560;2022-09-13T17:35:17;19.40;63.40
43697;DHT22;29301;47.620;19.560;2022-09-13T17:37:43;19.40;63.40
43697;DHT22;29301;47.620;19.560;2022-09-13T17:40:09;19.40;63.30
43697;DHT22;29301;47.620;19.560;2022-09-13T17:42:34;19.40;63.50
43697;DHT22;29301;47.620;19.560;2022-09-13T17:45:00;19.30;63.50
43697;DHT22;29301;47.620;19.560;2022-09-13T17:47:25;19.30;63.60
43697;DHT22;29301;47.620;19.560;2022-09-13T17:49:51;19.30;63.80
43697;DHT22;29301;47.620;19.560;2022-09-13T17:52:17;19.30;63.90
43697;DHT22;29301;47.620;19.560;2022-09-13T17:54:42;19.30;64.00
43697;DHT22;29301;47.620;19.560;2022-09-13T17:57:08;19.30;64.10
43697;DHT22;29301;47.620;19.560;2022-09-13T17:59:36;19.40;64.40
43697;DHT22;29301;47.620;19.560;2022-09-13T18:02:02;19.60;64.20
43697;DHT22;29301;47.620;19.560;2022-09-13T18:04:27;19.70;64.00
43697;DHT22;29301;47.620;19.560;2022-09-13T18:06:53;19.80;63.60
43697;DHT22;29301;47.620;19.560;2022-09-13T18:09:19;19.90;63.80
43697;DHT22;29301;47.620;19.560;2022-09-13T18:11:45;19.90;63.90
43697;DHT22;29301;47.620;19.560;2022-09-13T18:14:13;19.90;64.00
43697;DHT22;29301;47.620;19.560;2022-09-13T18:16:39;19.90;64.10
43697;DHT22;29301;47.620;19.560;2022-09-13T18:19:05;19.70;64.40
43697;DHT22;29301;47.620;19.560;2022-09-13T18:21:31;19.60;64.80
43697;DHT22;29301;47.620;19.560;2022-09-13T18:23:59;19.50;65.20
43697;DHT22;29301;47.620;19.560;2022-09-13T18:26:27;19.40;65.40
43697;DHT22;29301;47.620;19.560;2022-09-13T18:28:56;19.40;66.00
43697;DHT22;29301;47.620;19.560;2022-09-13T18:31:24;19.20;66.80
43697;DHT22;29301;47.620;19.560;2022-09-13T18:33:58;18.80;67.60
43697;DHT22;29301;47.620;19.560;2022-09-13T18:36:25;18.80;68.40
43697;DHT22;29301;47.620;19.560;2022-09-13T18:38:51;18.80;68.20
43697;DHT22;29301;47.620;19.560;2022-09-13T18:41:20;18.80;68.20
43697;DHT22;29301;47.620;19.560;2022-09-13T18:43:47;18.90;67.80
43697;DHT22;29301;47.620;19.560;2022-09-13T18:46:16;18.90;67.50
43697;DHT22;29301;47.620;19.560;2022-09-13T18:48:46;18.90;68.00
43697;DHT22;29301;47.620;19.560;2022-09-13T18:51:15;18.90;68.20
43697;DHT22;29301;47.620;19.560;2022-09-13T18:53:41;18.90;68.00
43697;DHT22;29301;47.620;19.560;2022-09-13T18:56:09;18.90;68.00
43697;DHT22;29301;47.620;19.560;2022-09-13T18:58:37;18.90;68.20
43697;DHT22;29301;47.620;19.560;2022-09-13T19:03:31;18.70;69.00
43697;DHT22;29301;47.620;19.560;2022-09-13T19:06:15;18.70;69.40
43697;DHT22;29301;47.620;19.560;2022-09-13T19:08:41;18.70;69.50